Time;durP1;ratioP1;P1;durP2;ratioP2;P2;SDS_P1;SDS_P2;PMS_P1;PMS_P2;Temp;Humidity;BMP_temperature;BMP_pressure;BME280_temperature;BME280_humidity;BME280_pressure;Samples;Min_cycle;Max_cycle;Signal;HPM_P1;HPM_P2
2023/04/27 00:01:19;;;;;;;2.95;2.40;;;15.30;99.90;;;;;;5036559;28;20036;-68
2023/04/27 00:03:45;;;;;;;2.83;2.50;;;15.30;99.90;;;;;;5037530;28;20025;-68
2023/04/27 00:06:10;;;;;;;3.70;2.55;;;15.20;99.90;;;;;;5036204;28;20028;-69
2023/04/27 00:08:36;;;;;;;4.88;3.33;;;15.20;99.90;;;;;;5032097;28;20052;-69
2023/04/27 00:11:02;;;;;;;2.83;2.42;;;15.20;99.90;;;;;;5036179;28;20489;-69
2023/04/27 00:13:28;;;;;;;7.93;3.28;;;15.20;99.90;;;;;;5037256;28;20030;-69
2023/04/27 00:15:53;;;;;;;5.28;3.00;;;15.20;99.90;;;;;;5037589;28;20078;-68
2023/04/27 00:18:19;;;;;;;3.38;2.90;;;15.20;99.90;;;;;;5036667;28;20050;-68
2023/04/27 00:20:45;;;;;;;5.10;3.22;;;15.20;99.90;;;;;;5036321;28;20105;-68
2023/04/27 00:23:11;;;;;;;5.45;2.67;;;15.20;99.90;;;;;;5037112;28;20025;-68
2023/04/27 00:25:37;;;;;;;6.40;3.00;;;15.20;99.90;;;;;;5037057;28;20029;-69
2023/04/27 00:28:03;;;;;;;2.90;2.55;;;15.20;99.90;;;;;;5035920;28;20432;-68
2023/04/27 00:30:28;;;;;;;5.78;3.30;;;15.10;99.90;;;;;;5037245;28;20025;-68
2023/04/27 00:32:54;;;;;;;5.15;3.03;;;15.10;99.90;;;;;;5036089;28;20105;-68
2023/04/27 00:35:20;;;;;;;4.25;2.67;;;15.10;99.90;;;;;;5036801;28;20564;-68
2023/04/27 00:37:45;;;;;;;6.65;3.15;;;15.10;99.90;;;;;;5036914;28;20112;-68
2023/04/27 00:40:11;;;;;;;5.88;2.75;;;15.00;99.90;;;;;;5036826;28;20025;-69
2023/04/27 00:42:37;;;;;;;3.10;2.67;;;15.00;99.90;;;;;;5036874;28;20025;-68
2023/04/27 00:45:04;;;;;;;4.15;2.42;;;15.00;99.90;;;;;;5036872;28;20370;-68
2023/04/27 00:47:31;;;;;;;3.47;3.05;;;15.00;99.90;;;;;;5033985;28;20064;-68
2023/04/27 00:49:57;;;;;;;5.85;3.22;;;15.00;99.90;;;;;;5036665;28;20036;-68
2023/04/27 00:52:22;;;;;;;5.65;3.25;;;15.00;99.90;;;;;;5036918;28;20028;-68
2023/04/27 00:54:52;;;;;;;11.30;3.97;;;14.90;99.90;;;;;;5036666;28;20025;-69
2023/04/27 00:57:17;;;;;;;6.47;3.00;;;14.90;99.90;;;;;;5036782;28;20071;-69
2023/04/27 00:59:43;;;;;;;6.82;3.70;;;14.90;99.90;;;;;;5034442;28;20025;-69
2023/04/27 01:02:10;;;;;;;6.00;3.40;;;15.00;99.90;;;;;;5035463;28;20520;-68
2023/04/27 01:04:36;;;;;;;3.78;3.38;;;14.90;99.90;;;;;;5034432;28;20501;-68
2023/04/27 01:07:02;;;;;;;6.75;3.83;;;14.90;99.90;;;;;;5035918;28;20025;-68
2023/04/27 01:09:28;;;;;;;4.70;3.75;;;14.90;99.90;;;;;;5035278;28;20053;-68
2023/04/27 01:11:53;;;;;;;4.50;3.92;;;15.00;99.90;;;;;;5035286;28;20412;-68
2023/04/27 01:14:19;;;;;;;8.63;3.83;;;15.00;99.90;;;;;;5036693;28;20087;-69
2023/04/27 01:16:45;;;;;;;6.85;3.58;;;15.00;99.90;;;;;;5034985;28;20410;-68
2023/04/27 01:19:11;;;;;;;5.20;3.42;;;14.90;99.90;;;;;;5036507;28;20609;-68
2023/04/27 01:21:36;;;;;;;3.63;3.22;;;15.00;99.90;;;;;;5036753;28;20060;-68
2023/04/27 01:24:06;;;;;;;6.90;3.22;;;15.00;99.90;;;;;;5036180;28;20052;-68
2023/04/27 01:26:32;;;;;;;5.15;3.53;;;15.00;99.90;;;;;;5036214;28;20045;-68
2023/04/27 01:28:58;;;;;;;5.20;4.03;;;15.00;99.90;;;;;;5036391;28;20018;-68
2023/04/27 01:31:24;;;;;;;4.22;3.72;;;15.00;99.90;;;;;;5035002;28;20083;-69
2023/04/27 01:33:50;;;;;;;4.90;3.97;;;15.00;99.90;;;;;;5036243;28;20087;-68
2023/04/27 01:36:16;;;;;;;6.28;3.38;;;14.90;99.90;;;;;;5036293;28;20030;-68
2023/04/27 01:38:42;;;;;;;6.07;4.20;;;15.00;99.90;;;;;;5036107;28;20022;-68
2023/04/27 01:41:08;;;;;;;6.43;3.80;;;15.00;99.90;;;;;;5036097;28;20031;-69
2023/04/27 01:43:35;;;;;;;5.45;3.72;;;15.00;99.90;;;;;;5036441;28;20509;-68
2023/04/27 01:46:11;;;;;;;5.50;3.80;;;15.00;99.90;;;;;;5036169;28;20030;-68
2023/04/27 01:48:37;;;;;;;5.95;4.47;;;15.00;99.90;;;;;;5036259;28;20025;-68
2023/04/27 01:51:03;;;;;;;4.40;4.00;;;15.00;99.90;;;;;;5036147;28;20041;-68
2023/04/27 01:53:30;;;;;;;5.93;4.05;;;15.00;99.90;;;;;;5036080;28;20025;-68
2023/04/27 01:55:56;;;;;;;5.18;3.75;;;15.00;99.90;;;;;;5036108;28;20018;-68
2023/04/27 01:58:21;;;;;;;4.55;3.92;;;15.00;99.90;;;;;;5036076;28;20021;-68
2023/04/27 02:00:47;;;;;;;5.40;3.60;;;15.00;99.90;;;;;;5035772;28;20033;-68
2023/04/27 02:03:13;;;;;;;4.80;3.97;;;15.00;99.90;;;;;;5036143;28;20060;-68
2023/04/27 02:05:38;;;;;;;8.80;3.95;;;15.00;99.90;;;;;;5035951;28;20033;-68
2023/04/27 02:08:05;;;;;;;5.57;4.10;;;15.00;99.90;;;;;;5033899;28;20025;-68
2023/04/27 02:10:30;;;;;;;4.22;3.75;;;15.00;99.90;;;;;;5036118;28;20033;-68
2023/04/27 02:12:56;;;;;;;5.35;4.60;;;15.10;99.90;;;;;;5036088;28;20073;-68
2023/04/27 02:15:22;;;;;;;4.90;4.40;;;15.00;99.90;;;;;;5035858;28;20033;-68
2023/04/27 02:17:47;;;;;;;7.72;4.53;;;15.00;99.90;;;;;;5035549;28;20120;-68
2023/04/27 02:20:13;;;;;;;8.80;4.45;;;15.00;99.90;;;;;;5035883;28;20041;-68
2023/04/27 02:22:43;;;;;;;7.00;4.55;;;15.00;99.90;;;;;;5036119;28;20021;-68
2023/04/27 02:25:12;;;;;;;4.47;4.00;;;15.00;99.90;;;;;;5036536;28;20453;-68
2023/04/27 02:27:39;;;;;;;6.20;4.00;;;15.00;99.90;;;;;;5038281;28;20049;-68
2023/04/27 02:30:06;;;;;;;7.53;4.57;;;15.00;99.90;;;;;;5039370;28;20022;-68
2023/04/27 02:32:32;;;;;;;9.48;4.70;;;15.00;99.90;;;;;;5039166;28;20085;-68
2023/04/27 02:34:58;;;;;;;5.30;4.30;;;14.90;99.90;;;;;;5038938;28;20038;-68
2023/04/27 02:37:24;;;;;;;6.90;5.20;;;14.90;99.90;;;;;;5039374;28;20029;-68
2023/04/27 02:39:49;;;;;;;5.78;4.13;;;14.90;99.90;;;;;;5039065;28;20022;-68
2023/04/27 02:42:15;;;;;;;5.75;4.45;;;14.90;99.90;;;;;;5039203;28;20032;-68
2023/04/27 02:44:41;;;;;;;9.18;4.88;;;14.90;99.90;;;;;;5037971;28;20112;-68
2023/04/27 02:47:07;;;;;;;6.35;3.80;;;14.80;99.90;;;;;;5037537;28;20111;-68
2023/04/27 02:49:32;;;;;;;5.40;4.32;;;14.80;99.90;;;;;;5038974;28;20128;-68
2023/04/27 02:51:58;;;;;;;6.00;3.80;;;14.80;99.90;;;;;;5038857;28;20021;-68
2023/04/27 02:54:24;;;;;;;4.22;3.65;;;14.80;99.90;;;;;;5038962;28;20033;-68
2023/04/27 02:56:50;;;;;;;4.60;4.15;;;14.80;99.90;;;;;;5038217;28;20033;-68
2023/04/27 02:59:16;;;;;;;6.22;4.35;;;14.80;99.90;;;;;;5038906;28;20457;-68
2023/04/27 03:01:41;;;;;;;6.43;4.63;;;14.80;99.90;;;;;;5037755;28;20504;-68
2023/04/27 03:04:07;;;;;;;8.88;5.13;;;14.80;99.90;;;;;;5038318;28;20504;-69
2023/04/27 03:06:33;;;;;;;7.22;4.25;;;14.80;99.90;;;;;;5037500;28;20093;-68
2023/04/27 03:08:58;;;;;;;7.70;4.80;;;14.80;99.90;;;;;;5038959;28;20029;-68
2023/04/27 03:11:24;;;;;;;5.10;4.60;;;14.80;99.90;;;;;;5037752;28;20041;-68
2023/04/27 03:13:50;;;;;;;6.63;4.22;;;14.90;99.90;;;;;;5038766;28;20029;-68
2023/04/27 03:16:16;;;;;;;4.50;4.10;;;14.90;99.90;;;;;;5036710;28;20017;-68
2023/04/27 03:18:41;;;;;;;7.30;4.82;;;14.90;99.90;;;;;;5038066;28;20030;-68
2023/04/27 03:21:07;;;;;;;4.72;4.07;;;14.90;99.90;;;;;;5038062;28;20024;-68
2023/04/27 03:23:33;;;;;;;5.47;4.50;;;14.90;99.90;;;;;;5038702;28;20052;-68
2023/04/27 03:25:59;;;;;;;5.03;4.15;;;14.90;99.90;;;;;;5038527;28;20048;-68
2023/04/27 03:28:25;;;;;;;6.07;5.20;;;14.90;99.90;;;;;;5037884;28;20462;-68
2023/04/27 03:30:51;;;;;;;4.63;4.22;;;14.80;99.90;;;;;;5038121;28;20061;-68
2023/04/27 03:33:17;;;;;;;5.45;4.50;;;14.80;99.90;;;;;;5037150;28;20089;-68
2023/04/27 03:35:43;;;;;;;5.03;4.35;;;14.80;99.90;;;;;;5038012;28;20029;-68
2023/04/27 03:38:08;;;;;;;5.93;4.40;;;14.80;99.90;;;;;;5038494;28;20032;-68
2023/04/27 03:40:34;;;;;;;5.57;5.03;;;14.80;99.90;;;;;;5036755;28;20028;-69
2023/04/27 03:43:00;;;;;;;5.93;4.55;;;14.80;99.90;;;;;;5038439;28;20025;-68
2023/04/27 03:45:26;;;;;;;6.15;4.43;;;14.80;99.90;;;;;;5037923;28;20093;-68
2023/04/27 03:47:51;;;;;;;5.25;4.75;;;14.80;99.90;;;;;;5036376;28;20063;-68
2023/04/27 03:50:17;;;;;;;5.57;4.30;;;14.80;99.90;;;;;;5035685;28;20029;-68
2023/04/27 03:52:43;;;;;;;5.90;4.32;;;14.70;99.90;;;;;;5037917;28;20498;-68
2023/04/27 03:55:08;;;;;;;5.30;4.80;;;14.70;99.90;;;;;;5036918;28;20025;-68
2023/04/27 03:57:34;;;;;;;7.03;4.90;;;14.70;99.90;;;;;;5051658;28;20037;-68
2023/04/27 04:00:00;;;;;;;14.43;5.43;;;14.80;99.90;;;;;;5035927;28;20032;-68
2023/04/27 04:02:26;;;;;;;9.40;5.50;;;14.80;99.90;;;;;;5035416;28;20018;-68
2023/04/27 04:04:51;;;;;;;5.47;4.97;;;14.70;99.90;;;;;;5037774;28;20415;-69
2023/04/27 04:07:17;;;;;;;6.70;5.28;;;14.80;99.90;;;;;;5037488;28;20029;-68
2023/04/27 04:09:43;;;;;;;7.50;5.30;;;14.70;99.90;;;;;;5036749;28;20516;-68
2023/04/27 04:12:09;;;;;;;5.90;5.30;;;14.80;99.90;;;;;;5037400;28;20021;-68
2023/04/27 04:14:35;;;;;;;10.52;5.20;;;14.80;99.90;;;;;;5036297;28;20025;-68
2023/04/27 04:17:00;;;;;;;7.45;5.85;;;14.70;99.90;;;;;;5036740;28;20045;-68
2023/04/27 04:19:26;;;;;;;5.65;5.13;;;14.80;99.90;;;;;;5037088;28;20457;-68
2023/04/27 04:21:53;;;;;;;7.55;4.57;;;14.70;99.90;;;;;;5037366;28;20010;-68
2023/04/27 04:24:19;;;;;;;8.75;5.47;;;14.70;99.90;;;;;;5036301;28;20021;-69
2023/04/27 04:26:44;;;;;;;10.90;5.32;;;14.70;99.90;;;;;;5035636;28;20025;-68
2023/04/27 04:29:10;;;;;;;7.88;6.03;;;14.70;99.90;;;;;;5037148;28;20017;-68
2023/04/27 04:31:36;;;;;;;9.52;5.85;;;14.70;99.90;;;;;;5036786;28;20037;-68
2023/04/27 04:34:02;;;;;;;5.22;4.72;;;14.70;99.90;;;;;;5037258;28;20028;-69
2023/04/27 04:36:28;;;;;;;5.72;5.00;;;14.60;99.90;;;;;;5036307;28;20025;-68
2023/04/27 04:38:54;;;;;;;6.85;5.35;;;14.60;99.90;;;;;;5037573;28;20057;-68
2023/04/27 04:41:19;;;;;;;6.18;4.85;;;14.60;99.90;;;;;;5035821;28;20044;-68
2023/04/27 04:43:48;;;;;;;6.47;4.85;;;14.60;99.90;;;;;;5037222;28;20053;-68
2023/04/27 04:46:14;;;;;;;5.40;4.90;;;14.60;99.90;;;;;;5036006;28;20025;-68
2023/04/27 04:48:40;;;;;;;7.55;6.00;;;14.60;99.90;;;;;;5035667;28;20486;-68
2023/04/27 04:51:06;;;;;;;6.75;6.03;;;14.50;99.90;;;;;;5035924;28;20032;-68
2023/04/27 04:53:32;;;;;;;9.80;6.20;;;14.50;99.90;;;;;;5037053;28;20021;-68
2023/04/27 04:56:10;;;;;;;6.68;6.00;;;14.50;99.90;;;;;;5036269;28;20028;-69
2023/04/27 04:58:36;;;;;;;9.70;5.88;;;14.50;99.90;;;;;;5036736;28;20029;-69
2023/04/27 05:01:02;;;;;;;10.63;6.82;;;14.50;99.90;;;;;;5035563;28;20032;-68
2023/04/27 05:03:27;;;;;;;8.68;6.78;;;14.50;99.90;;;;;;5036726;28;20056;-68
2023/04/27 05:05:53;;;;;;;7.28;6.20;;;14.50;99.90;;;;;;5028179;28;20498;-67
2023/04/27 05:08:18;;;;;;;7.88;6.68;;;14.50;99.90;;;;;;5025702;28;20025;-68
2023/04/27 05:10:51;;;;;;;6.97;5.95;;;14.50;99.90;;;;;;5033380;28;20064;-68
2023/04/27 05:13:17;;;;;;;8.38;5.78;;;14.50;99.90;;;;;;5034748;28;20021;-68
2023/04/27 05:15:43;;;;;;;9.48;6.72;;;14.50;99.90;;;;;;5033727;28;20043;-68
2023/04/27 05:18:08;;;;;;;9.85;6.43;;;14.50;99.90;;;;;;5038412;28;20048;-68
2023/04/27 05:20:35;;;;;;;12.93;6.68;;;14.50;99.90;;;;;;5036674;28;20022;-68
2023/04/27 05:23:01;;;;;;;7.10;5.88;;;14.50;99.90;;;;;;5036484;28;20047;-68
2023/04/27 05:25:29;;;;;;;8.60;5.95;;;14.60;99.90;;;;;;5036626;28;20501;-68
2023/04/27 05:27:55;;;;;;;7.40;5.60;;;14.60;99.90;;;;;;5036171;28;20082;-68
2023/04/27 05:30:21;;;;;;;6.10;5.50;;;14.60;99.90;;;;;;5035658;28;20057;-68
2023/04/27 05:32:46;;;;;;;8.73;5.72;;;14.70;99.90;;;;;;5036272;28;20025;-68
2023/04/27 05:35:12;;;;;;;9.32;5.93;;;14.70;99.90;;;;;;5035049;28;20083;-68
2023/04/27 05:37:38;;;;;;;5.93;5.00;;;14.70;99.90;;;;;;5035308;28;20026;-68
2023/04/27 05:40:06;;;;;;;7.38;5.40;;;14.70;99.90;;;;;;5036176;28;20026;-68
2023/04/27 05:42:31;;;;;;;7.40;5.45;;;14.70;99.90;;;;;;5036502;28;20042;-68
2023/04/27 05:44:57;;;;;;;8.05;5.57;;;14.80;99.90;;;;;;5036089;28;20021;-68
2023/04/27 05:47:23;;;;;;;6.85;5.53;;;14.80;99.90;;;;;;5036045;28;20393;-68
2023/04/27 05:49:52;;;;;;;7.00;5.78;;;14.90;99.90;;;;;;5036251;28;20033;-68
2023/04/27 05:52:18;;;;;;;7.28;6.57;;;15.00;99.90;;;;;;5027052;28;20032;-68
2023/04/27 05:54:48;;;;;;;7.60;6.10;;;15.10;99.90;;;;;;5036419;28;20060;-68
2023/04/27 05:57:14;;;;;;;10.03;5.80;;;15.20;99.90;;;;;;5027665;28;20069;-68
2023/04/27 05:59:41;;;;;;;8.35;6.38;;;15.20;99.90;;;;;;5037307;28;20261;-69
2023/04/27 06:02:07;;;;;;;7.18;4.88;;;15.30;99.90;;;;;;5040102;28;20021;-68
2023/04/27 06:04:33;;;;;;;9.27;6.07;;;15.40;99.90;;;;;;5040125;28;20022;-69
2023/04/27 06:06:59;;;;;;;7.85;5.57;;;15.50;99.90;;;;;;5040252;28;20030;-69
2023/04/27 06:09:25;;;;;;;8.80;5.97;;;15.60;99.90;;;;;;5039283;28;20416;-68
2023/04/27 06:11:50;;;;;;;9.60;7.53;;;15.60;99.90;;;;;;5039779;28;20029;-68
2023/04/27 06:14:16;;;;;;;9.52;7.57;;;15.60;99.90;;;;;;5039783;28;20607;-68
2023/04/27 06:16:42;;;;;;;10.70;8.88;;;15.70;99.90;;;;;;5039641;28;20419;-69
2023/04/27 06:19:08;;;;;;;10.23;8.50;;;15.70;99.90;;;;;;5038998;28;20017;-69
2023/04/27 06:21:34;;;;;;;8.85;7.95;;;15.70;99.90;;;;;;5039566;28;20025;-68
2023/04/27 06:24:00;;;;;;;9.63;8.68;;;15.90;99.90;;;;;;5039758;28;20060;-68
2023/04/27 06:26:27;;;;;;;12.32;8.93;;;16.00;99.90;;;;;;5039123;28;20037;-68
2023/04/27 06:28:53;;;;;;;11.13;8.18;;;16.10;99.90;;;;;;5039412;28;20493;-68
2023/04/27 06:31:19;;;;;;;10.25;8.25;;;16.20;99.90;;;;;;5037453;28;20064;-68
2023/04/27 06:33:45;;;;;;;13.18;7.82;;;16.30;99.90;;;;;;5038410;28;20017;-68
2023/04/27 06:36:11;;;;;;;11.50;8.20;;;16.40;99.90;;;;;;5039279;28;20394;-69
2023/04/27 06:38:36;;;;;;;7.63;6.63;;;16.50;99.90;;;;;;5037426;28;20044;-68
2023/04/27 06:41:02;;;;;;;7.28;5.85;;;16.50;99.90;;;;;;5038139;28;20025;-69
2023/04/27 06:43:29;;;;;;;7.18;5.63;;;16.50;99.90;;;;;;5039073;28;20056;-68
2023/04/27 06:45:55;;;;;;;6.93;5.82;;;16.60;99.90;;;;;;5039033;28;20048;-68
2023/04/27 06:48:21;;;;;;;10.25;5.43;;;16.70;99.90;;;;;;5038929;28;20096;-68
2023/04/27 06:50:46;;;;;;;7.65;4.85;;;16.70;99.90;;;;;;5039065;28;20103;-68
2023/04/27 06:53:12;;;;;;;7.60;4.28;;;16.90;99.90;;;;;;5039051;28;20031;-68
2023/04/27 06:55:38;;;;;;;7.53;4.10;;;17.10;99.90;;;;;;5038843;28;20392;-69
2023/04/27 06:58:04;;;;;;;5.07;4.57;;;17.20;99.90;;;;;;5038741;28;20063;-68
2023/04/27 07:00:30;;;;;;;4.90;4.05;;;17.20;99.90;;;;;;5038939;28;20121;-69
2023/04/27 07:02:56;;;;;;;11.13;3.92;;;17.20;99.90;;;;;;5036679;28;20017;-69
2023/04/27 07:05:22;;;;;;;7.88;3.90;;;17.00;99.90;;;;;;5038064;28;20101;-68
2023/04/27 07:07:48;;;;;;;4.55;3.88;;;17.10;99.90;;;;;;5039032;28;20017;-69
2023/04/27 07:10:14;;;;;;;4.93;4.43;;;17.10;99.90;;;;;;5038222;28;20029;-68
2023/04/27 07:12:40;;;;;;;6.28;4.50;;;17.10;99.90;;;;;;5035209;28;20021;-68
2023/04/27 07:15:07;;;;;;;4.25;3.72;;;17.10;99.90;;;;;;5038641;28;20029;-69
2023/04/27 07:17:33;;;;;;;4.45;3.92;;;17.40;99.90;;;;;;5036861;28;20054;-69
2023/04/27 07:20:00;;;;;;;8.20;4.13;;;17.50;99.90;;;;;;5037689;28;20448;-68
2023/04/27 07:22:25;;;;;;;6.72;3.60;;;17.70;99.90;;;;;;5038876;28;20104;-69
2023/04/27 07:24:51;;;;;;;5.55;3.75;;;17.90;99.90;;;;;;5038991;28;20060;-69
2023/04/27 07:27:17;;;;;;;3.65;3.35;;;18.00;99.90;;;;;;5038118;28;20454;-68
2023/04/27 07:29:43;;;;;;;6.13;3.47;;;18.20;99.90;;;;;;5030563;28;20536;-66
2023/04/27 07:32:09;;;;;;;4.97;3.95;;;18.30;99.90;;;;;;5035622;28;20021;-66
2023/04/27 07:34:35;;;;;;;3.72;3.28;;;18.40;99.90;;;;;;5042380;28;20030;-67
2023/04/27 07:37:02;;;;;;;6.00;3.30;;;18.50;99.90;;;;;;5036700;28;20620;-67
2023/04/27 07:39:27;;;;;;;3.78;3.00;;;18.60;99.90;;;;;;5036218;28;20044;-66
2023/04/27 07:41:53;;;;;;;4.20;3.10;;;18.60;99.90;;;;;;5038418;28;20541;-67
2023/04/27 07:44:20;;;;;;;6.93;3.03;;;18.70;99.90;;;;;;5036077;28;20029;-67
2023/04/27 07:46:47;;;;;;;5.93;2.75;;;18.80;99.90;;;;;;5038051;28;20016;-68
2023/04/27 07:49:14;;;;;;;2.92;2.63;;;18.90;99.90;;;;;;5028218;28;20398;-67
2023/04/27 07:51:39;;;;;;;4.60;3.33;;;18.90;99.90;;;;;;5036989;28;20091;-67
2023/04/27 07:54:05;;;;;;;4.75;3.60;;;19.10;99.90;;;;;;5038119;28;20457;-67
2023/04/27 07:56:31;;;;;;;5.30;2.92;;;19.30;99.90;;;;;;5038029;28;20051;-67
2023/04/27 07:58:57;;;;;;;7.47;3.50;;;19.40;99.90;;;;;;5038156;28;20549;-67
2023/04/27 08:01:23;;;;;;;3.58;2.28;;;19.40;99.90;;;;;;5037805;28;20457;-67
2023/04/27 08:03:49;;;;;;;2.70;2.50;;;19.50;99.90;;;;;;5036654;28;20029;-67
2023/04/27 08:06:17;;;;;;;3.13;2.58;;;19.60;99.90;;;;;;5037641;28;20047;-67
2023/04/27 08:08:42;;;;;;;9.32;2.72;;;19.70;99.90;;;;;;5038122;28;20032;-67
2023/04/27 08:11:11;;;;;;;4.43;2.20;;;19.80;99.90;;;;;;5037751;28;20021;-67
2023/04/27 08:13:37;;;;;;;3.97;2.70;;;20.10;99.90;;;;;;5037873;28;20024;-67
2023/04/27 08:16:03;;;;;;;6.82;2.90;;;20.40;99.90;;;;;;5037391;28;20108;-68
2023/04/27 08:18:29;;;;;;;2.92;1.80;;;20.50;99.90;;;;;;5037408;28;20025;-68
2023/04/27 08:20:54;;;;;;;4.30;1.48;;;20.40;99.90;;;;;;5037709;28;20017;-68
2023/04/27 08:23:20;;;;;;;7.38;1.92;;;20.30;99.90;;;;;;5035576;28;20029;-68
2023/04/27 08:25:47;;;;;;;2.78;1.75;;;20.30;99.90;;;;;;5035330;28;20060;-68
2023/04/27 08:28:14;;;;;;;4.13;2.42;;;20.20;99.90;;;;;;5037334;28;20025;-68
2023/04/27 08:30:43;;;;;;;4.25;1.73;;;20.10;99.90;;;;;;5037557;28;20029;-68
2023/04/27 08:33:09;;;;;;;3.33;1.80;;;20.00;99.90;;;;;;5037167;28;20021;-68
2023/04/27 08:35:35;;;;;;;3.78;2.33;;;19.90;99.90;;;;;;5037356;28;20025;-68
2023/04/27 08:38:00;;;;;;;3.00;1.80;;;19.80;99.90;;;;;;5037523;28;20022;-68
2023/04/27 08:40:26;;;;;;;2.90;1.85;;;19.60;99.90;;;;;;5037035;28;20501;-68
2023/04/27 08:42:58;;;;;;;7.55;2.05;;;19.60;99.90;;;;;;5037323;28;20474;-67
2023/04/27 08:45:26;;;;;;;3.08;1.65;;;19.80;99.90;;;;;;5044282;28;20027;-68
2023/04/27 08:47:52;;;;;;;1.90;1.60;;;19.80;99.90;;;;;;5036890;28;20026;-68
2023/04/27 08:50:18;;;;;;;2.30;1.60;;;19.80;99.90;;;;;;5037070;28;20053;-67
2023/04/27 08:52:45;;;;;;;3.90;1.60;;;19.80;99.90;;;;;;5036833;28;20034;-67
2023/04/27 08:55:11;;;;;;;2.20;1.70;;;19.80;99.90;;;;;;5035934;28;20057;-67
2023/04/27 08:57:37;;;;;;;3.15;2.05;;;19.80;99.90;;;;;;5036449;28;20029;-67
2023/04/27 09:00:13;;;;;;;6.40;1.52;;;19.90;99.90;;;;;;5037208;28;20100;-67
2023/04/27 09:02:45;;;;;;;5.20;1.77;;;20.00;99.90;;;;;;5036961;28;20115;-68
2023/04/27 09:05:22;;;;;;;2.17;1.67;;;20.20;99.90;;;;;;5027740;28;20017;-68
2023/04/27 09:08:04;;;;;;;6.00;2.20;;;20.30;99.90;;;;;;5035282;28;20078;-68
2023/04/27 09:10:42;;;;;;;1.95;1.52;;;20.40;99.90;;;;;;5036895;28;20576;-68
2023/04/27 09:13:08;;;;;;;2.83;1.58;;;20.40;99.90;;;;;;5036919;28;20021;-68
2023/04/27 09:15:44;;;;;;;1.75;1.40;;;20.60;99.90;;;;;;5036946;28;20036;-68
2023/04/27 09:18:22;;;;;;;1.83;1.42;;;20.70;99.90;;;;;;5027342;28;20524;-67
2023/04/27 09:20:52;;;;;;;2.42;1.50;;;21.00;99.90;;;;;;5036634;28;20502;-68
2023/04/27 09:23:28;;;;;;;2.15;1.20;;;21.20;99.90;;;;;;5036950;28;20047;-68
2023/04/27 09:25:58;;;;;;;4.00;1.20;;;21.60;99.90;;;;;;5036758;28;20014;-70
2023/04/27 09:28:29;;;;;;;1.90;1.20;;;22.10;99.90;;;;;;5036758;28;20039;-70
2023/04/27 09:30:58;;;;;;;1.70;1.23;;;22.10;99.90;;;;;;5036525;28;20073;-69
2023/04/27 09:33:25;;;;;;;4.20;1.60;;;22.10;99.90;;;;;;5037429;28;20053;-70
2023/04/27 09:35:51;;;;;;;1.88;1.20;;;22.10;99.90;;;;;;5040810;28;20017;-70
2023/04/27 09:38:21;;;;;;;3.55;1.33;;;22.10;99.90;;;;;;5040818;28;20593;-70
2023/04/27 09:40:48;;;;;;;3.58;1.23;;;21.90;99.90;;;;;;5040820;28;20048;-70
2023/04/27 09:43:15;;;;;;;2.30;1.20;;;21.70;99.90;;;;;;5039408;28;20466;-70
2023/04/27 09:45:41;;;;;;;2.38;1.35;;;21.60;99.90;;;;;;5040459;28;20028;-70
2023/04/27 09:48:07;;;;;;;4.13;1.05;;;21.60;99.90;;;;;;5040373;28;20032;-71
2023/04/27 09:50:41;;;;;;;4.18;1.40;;;21.70;99.90;;;;;;5040359;28;20062;-71
2023/04/27 09:53:10;;;;;;;4.57;1.63;;;21.70;99.90;;;;;;5039089;28;20040;-70
2023/04/27 09:55:39;;;;;;;2.83;1.33;;;21.80;99.90;;;;;;5040740;28;20029;-70
2023/04/27 09:58:52;;;;;;;5.68;1.45;;;22.10;99.90;;;;;;5038834;28;20401;-70
2023/04/27 10:01:58;;;;;;;1.55;1.27;;;22.40;99.90;;;;;;5032476;28;20025;-69
2023/04/27 10:04:45;;;;;;;2.17;1.30;;;22.50;99.90;;;;;;5039936;28;20038;-68
2023/04/27 10:07:13;;;;;;;2.17;1.25;;;22.30;99.90;;;;;;5031877;28;20460;-68
2023/04/27 10:09:47;;;;;;;5.28;1.40;;;22.40;99.90;;;;;;5040078;28;20033;-68
2023/04/27 10:12:16;;;;;;;2.65;1.10;;;22.50;99.90;;;;;;5038839;28;20516;-68
2023/04/27 10:14:52;;;;;;;1.92;1.38;;;22.60;99.90;;;;;;5039948;28;20026;-68
2023/04/27 10:17:22;;;;;;;1.13;0.90;;;22.60;99.90;;;;;;5038311;28;20041;-68
2023/04/27 10:20:08;;;;;;;3.00;1.17;;;22.50;99.90;;;;;;5039923;28;20018;-68
2023/04/27 10:22:46;;;;;;;1.75;1.00;;;22.60;99.90;;;;;;5039833;28;20076;-68
2023/04/27 10:25:19;;;;;;;4.60;1.50;;;22.70;99.90;;;;;;5039733;28;20163;-71
2023/04/27 10:28:01;;;;;;;2.35;1.02;;;22.70;99.90;;;;;;5038409;28;20099;-69
2023/04/27 10:30:37;;;;;;;3.08;0.90;;;23.10;99.90;;;;;;5039724;28;20393;-69
2023/04/27 10:33:08;;;;;;;2.10;0.90;;;23.10;99.90;;;;;;5032079;28;20045;-69
2023/04/27 10:35:34;;;;;;;1.02;0.80;;;22.90;99.90;;;;;;5039668;28;20037;-69
2023/04/27 10:38:30;;;;;;;4.10;0.90;;;22.90;99.90;;;;;;5039681;28;20509;-69
2023/04/27 10:41:01;;;;;;;1.50;0.80;;;23.00;99.90;;;;;;5029812;28;20029;-71
2023/04/27 10:43:32;;;;;;;1.85;0.90;;;23.00;99.90;;;;;;5039422;28;20403;-70
2023/04/27 10:46:13;;;;;;;3.55;1.10;;;22.80;99.90;;;;;;5038660;28;20021;-69
2023/04/27 10:48:42;;;;;;;2.85;1.00;;;22.90;99.90;;;;;;5036772;28;20490;-69
2023/04/27 10:51:08;;;;;;;2.85;1.45;;;23.00;99.90;;;;;;5039519;28;20029;-70
2023/04/27 10:53:37;;;;;;;2.90;1.40;;;23.20;99.90;;;;;;5038029;28;20021;-69
2023/04/27 10:56:05;;;;;;;3.35;1.08;;;23.40;99.90;;;;;;5039444;28;20026;-68
2023/04/27 10:58:32;;;;;;;1.65;1.05;;;23.50;99.90;;;;;;5039179;28;20025;-68
2023/04/27 11:00:58;;;;;;;2.85;1.00;;;23.70;99.90;;;;;;5038949;28;20072;-69
2023/04/27 11:03:24;;;;;;;3.75;0.82;;;23.50;99.90;;;;;;5029470;28;20025;-68
2023/04/27 11:06:01;;;;;;;1.08;0.93;;;23.60;99.90;;;;;;5037852;28;20030;-69
2023/04/27 11:08:26;;;;;;;1.58;1.00;;;23.50;99.90;;;;;;5038066;28;20512;-68
2023/04/27 11:10:52;;;;;;;2.00;1.10;;;23.50;99.90;;;;;;5038975;28;20021;-71
2023/04/27 11:13:20;;;;;;;2.60;1.10;;;23.40;99.90;;;;;;5039236;28;20100;-71
2023/04/27 11:15:48;;;;;;;1.65;1.05;;;23.50;99.90;;;;;;5038791;28;20379;-68
2023/04/27 11:18:16;;;;;;;1.85;1.13;;;23.60;99.90;;;;;;5038669;28;20051;-72
2023/04/27 11:20:43;;;;;;;3.42;1.00;;;23.60;99.90;;;;;;5037514;28;20029;-70
2023/04/27 11:23:12;;;;;;;1.08;0.80;;;23.20;99.90;;;;;;5037802;28;20049;-69
2023/04/27 11:25:38;;;;;;;3.33;0.90;;;23.30;99.90;;;;;;5038771;28;20100;-68
2023/04/27 11:28:04;;;;;;;2.13;1.08;;;23.40;99.90;;;;;;5038873;28;20041;-68
2023/04/27 11:30:30;;;;;;;2.53;0.85;;;23.70;99.90;;;;;;5038585;28;20022;-69
2023/04/27 11:32:56;;;;;;;2.40;1.17;;;23.90;99.90;;;;;;5038544;28;20085;-70
2023/04/27 11:35:34;;;;;;;1.42;0.90;;;24.20;99.90;;;;;;5038359;28;20033;-70
2023/04/27 11:38:00;;;;;;;2.40;1.05;;;24.50;99.90;;;;;;5037082;28;20051;-68
2023/04/27 11:40:27;;;;;;;2.17;1.15;;;24.60;99.90;;;;;;5037250;28;20022;-69
2023/04/27 11:43:02;;;;;;;3.50;0.73;;;24.70;99.90;;;;;;5036386;28;20018;-68
2023/04/27 11:45:28;;;;;;;0.95;0.82;;;24.70;99.90;;;;;;5038677;28;20026;-69
2023/04/27 11:47:56;;;;;;;2.15;0.60;;;24.80;99.90;;;;;;5038315;28;20053;-68
2023/04/27 11:50:24;;;;;;;2.85;0.77;;;24.90;99.90;;;;;;5038238;28;20049;-68
2023/04/27 11:52:51;;;;;;;1.98;0.85;;;24.80;99.90;;;;;;5038199;28;20021;-68
2023/04/27 11:55:20;;;;;;;1.33;0.70;;;24.60;99.90;;;;;;5037369;28;20043;-68
2023/04/27 11:57:45;;;;;;;0.82;0.60;;;24.50;99.90;;;;;;5036727;28;20014;-68
2023/04/27 12:00:13;;;;;;;1.05;0.70;;;24.50;99.90;;;;;;5038249;28;20385;-69
2023/04/27 12:02:39;;;;;;;5.15;1.20;;;24.50;99.90;;;;;;5037610;28;20489;-68
2023/04/27 12:05:06;;;;;;;4.80;0.70;;;24.50;99.90;;;;;;5036790;28;20508;-68
2023/04/27 12:07:32;;;;;;;2.42;1.02;;;24.70;99.90;;;;;;5037734;28;20026;-69
2023/04/27 12:09:58;;;;;;;2.05;1.10;;;24.80;99.90;;;;;;5038240;28;20055;-68
2023/04/27 12:12:23;;;;;;;1.40;0.80;;;24.70;99.90;;;;;;5037838;28;20041;-68
2023/04/27 12:14:52;;;;;;;1.95;0.80;;;24.50;99.90;;;;;;5036749;28;20087;-68
2023/04/27 12:17:18;;;;;;;3.65;0.90;;;24.50;99.90;;;;;;5037129;28;20417;-68
2023/04/27 12:19:43;;;;;;;1.27;0.70;;;24.40;99.90;;;;;;5037684;28;20031;-68
2023/04/27 12:22:09;;;;;;;1.90;0.80;;;24.60;99.90;;;;;;5037683;28;20097;-69
2023/04/27 12:24:36;;;;;;;2.55;1.17;;;24.70;99.90;;;;;;5037811;28;20441;-70
2023/04/27 12:27:03;;;;;;;1.70;0.82;;;24.80;99.90;;;;;;5036395;28;20021;-68
2023/04/27 12:29:30;;;;;;;1.05;0.68;;;24.60;99.90;;;;;;5037510;28;20026;-68
2023/04/27 12:31:57;;;;;;;6.38;0.93;;;24.70;99.90;;;;;;5037372;28;20018;-69
2023/04/27 12:34:23;;;;;;;1.77;0.85;;;24.60;99.90;;;;;;5037520;28;20021;-68
2023/04/27 12:36:48;;;;;;;0.50;0.50;;;24.40;99.90;;;;;;5037442;28;20385;-68
2023/04/27 12:39:19;;;;;;;0.73;0.55;;;24.50;99.90;;;;;;5037384;28;20029;-68
2023/04/27 12:41:46;;;;;;;1.48;0.73;;;24.80;99.90;;;;;;5037583;28;20028;-68
2023/04/27 12:44:13;;;;;;;2.38;0.88;;;25.00;99.90;;;;;;5035990;28;20049;-69
2023/04/27 12:46:39;;;;;;;1.05;0.80;;;25.40;99.90;;;;;;5036998;28;20021;-68